Indian Head, Canada
Current Conditions -  °F | °C
As of 11:00 PM on Tuesday 21 Oct 2014 (Local Time) from CYQR Reporting Station
Scattered Clouds Scattered Clouds  
Wind Chill: 45°   Ceiling: Unl
Heat Index: 48°   Visibility: 15mi
Dew Point: 43°   Wind: 7mph
Humidity: 82%   Direction: 160°SSE
Pressure: 29.57"   Gusts: NA
Location:  50.53°N, 103.67°W
Report Text: CYQR 220500Z 16006KT 15SM FEW140 SCT210 09/06 A2957 RMK AC2CI1 SLP025 DENSITY ALT 2000FT
Loading
Personal Weather Stations






























Interactive Weather Map
Tropical Storm Tracking
New forecast layout! Learn more

10-Day Weather Forecast

Advertisements
Track Severe Weather on mobile